PWSweather.com
Personal Weather Stations
Station Observations
HELOTES
Helotes Park Terrace, Helotes, TX 78023

Helotes Park TerraceHelotes, TX 78023

Lat: 29.57, Lon: -98.68

Elevation: 1060

Station Type: Ambient Weather WS-1090

Latest ConditionsUpdated 6:25:12 AM CDT Thursday, Aug 25, 2016
Currently Today's Max Today's Min Today's Average
Temperature 74.5°F23.6°C 78.7°F25.9°C 74.5°F23.6°C 76.7°F24.8°C
Dew Point 71.1°F21.7°C 73.4°F23.0°C 71.0°F21.7°C 72.3°F22.4°C
Winds 0.8 mph SE1.3 kmh SE 3.3 mph ENE5.3 kmh ENE - 1.1 mph 1.8 kmh
Wind Gusts 2.5 mph4.0 kmh 4.9 mph7.9 kmh - -
Humidity 89% 89% 78% 86%
Pressure 29.98 in1015.2 mb 30.01 in1016.3 mb 29.97 in1014.9 mb -
Hour Temp Dew Point Humidity Winds Wind Gusts Pressure Precip Precip Rate Daily Precip Total
06:25 AM 74.5°F23.6°C 71.1°F21.7°C 89% 0.8 mph SE1.3 kmh SE 2.5 mph4.0 kmh 29.98 in1015.2 mb 0.00 in0.0 mm 0.00 in0.0 mm 0.00 in0.0 mm
06:20 AM 74.7°F23.7°C 71.3°F21.8°C 89% 1.4 mph SE2.3 kmh SE 2.5 mph4.0 kmh 29.98 in1015.2 mb 0.00 in0.0 mm 0.00 in0.0 mm 0.00 in0.0 mm
06:15 AM 74.9°F23.8°C 71.5°F21.9°C 89% 0.4 mph E0.6 kmh E 1.8 mph2.9 kmh 29.97 in1014.9 mb 0.00 in0.0 mm 0.00 in0.0 mm 0.00 in0.0 mm
06:09 AM 74.9°F23.8°C 71.5°F21.9°C 89% 1.8 mph SE2.9 kmh SE 1.8 mph2.9 kmh 29.97 in1014.9 mb 0.00 in0.0 mm 0.00 in0.0 mm 0.00 in0.0 mm
06:04 AM 75.1°F23.9°C 71.6°F22.0°C 89% Calm Calm 0.4 mph0.6 kmh 29.97 in1014.9 mb 0.00 in0.0 mm 0.00 in0.0 mm 0.00 in0.0 mm
05:59 AM 75.1°F23.9°C 71.6°F22.0°C 89% Calm Calm 2.9 mph4.7 kmh 29.97 in1014.9 mb 0.00 in0.0 mm 0.00 in0.0 mm 0.00 in0.0 mm
05:54 AM 75.2°F24.0°C 71.8°F22.1°C 89% 0.6 mph S1.0 kmh S 2.9 mph4.7 kmh 29.98 in1015.2 mb 0.00 in0.0 mm 0.00 in0.0 mm 0.00 in0.0 mm
05:49 AM 75.2°F24.0°C 71.8°F22.1°C 89% 0.9 mph E1.4 kmh E 2.9 mph4.7 kmh 29.98 in1015.2 mb 0.00 in0.0 mm 0.00 in0.0 mm 0.00 in0.0 mm
05:44 AM 75.2°F24.0°C 71.8°F22.1°C 89% 0.4 mph ESE0.6 kmh ESE 2.0 mph3.2 kmh 29.98 in1015.2 mb 0.00 in0.0 mm 0.00 in0.0 mm 0.00 in0.0 mm
05:39 AM 75.1°F23.9°C 71.6°F22.0°C 89% 0.7 mph ESE1.1 kmh ESE 2.0 mph3.2 kmh 29.98 in1015.2 mb 0.00 in0.0 mm 0.00 in0.0 mm 0.00 in0.0 mm
05:34 AM 75.1°F23.9°C 71.6°F22.0°C 89% 0.2 mph ENE0.3 kmh ENE 2.5 mph4.0 kmh 29.98 in1015.2 mb 0.00 in0.0 mm 0.00 in0.0 mm 0.00 in0.0 mm
05:29 AM 75.1°F23.9°C 71.6°F22.0°C 89% 0.7 mph SE1.1 kmh SE 2.5 mph4.0 kmh 29.99 in1015.6 mb 0.00 in0.0 mm 0.00 in0.0 mm 0.00 in0.0 mm
05:24 AM 75.1°F23.9°C 71.6°F22.0°C 89% 0.6 mph SE1.0 kmh SE 2.5 mph4.0 kmh 29.98 in1015.2 mb 0.00 in0.0 mm 0.00 in0.0 mm 0.00 in0.0 mm
05:19 AM 75.1°F23.9°C 71.6°F22.0°C 89% 0.2 mph SE0.3 kmh SE 1.1 mph1.8 kmh 29.99 in1015.6 mb 0.00 in0.0 mm 0.00 in0.0 mm 0.00 in0.0 mm
05:14 AM 75.2°F24.0°C 71.8°F22.1°C 89% Calm Calm 1.1 mph1.8 kmh 29.99 in1015.6 mb 0.00 in0.0 mm 0.00 in0.0 mm 0.00 in0.0 mm
05:09 AM 75.2°F24.0°C 71.8°F22.1°C 89% Calm Calm -- 29.99 in1015.6 mb 0.00 in0.0 mm 0.00 in0.0 mm 0.00 in0.0 mm
05:04 AM 75.2°F24.0°C 71.5°F21.9°C 88% Calm Calm -- 29.99 in1015.6 mb 0.00 in0.0 mm 0.00 in0.0 mm 0.00 in0.0 mm
04:59 AM 75.2°F24.0°C 71.5°F21.9°C 88% Calm Calm 1.1 mph1.8 kmh 29.99 in1015.6 mb 0.00 in0.0 mm 0.00 in0.0 mm 0.00 in0.0 mm
04:54 AM 75.4°F24.1°C 71.6°F22.0°C 88% 0.3 mph ESE0.5 kmh ESE 1.1 mph1.8 kmh 29.99 in1015.6 mb 0.00 in0.0 mm 0.00 in0.0 mm 0.00 in0.0 mm
04:49 AM 75.4°F24.1°C 71.6°F22.0°C 88% 0.3 mph E0.5 kmh E 0.4 mph0.6 kmh 29.99 in1015.6 mb 0.00 in0.0 mm 0.00 in0.0 mm 0.00 in0.0 mm
04:44 AM 75.6°F24.2°C 71.8°F22.1°C 88% Calm Calm 0.9 mph1.4 kmh 29.99 in1015.6 mb 0.00 in0.0 mm 0.00 in0.0 mm 0.00 in0.0 mm
04:39 AM 75.6°F24.2°C 71.8°F22.1°C 88% Calm Calm 1.1 mph1.8 kmh 29.99 in1015.6 mb 0.00 in0.0 mm 0.00 in0.0 mm 0.00 in0.0 mm
04:34 AM 75.6°F24.2°C 71.8°F22.1°C 88% 0.8 mph E1.3 kmh E 1.1 mph1.8 kmh 29.99 in1015.6 mb 0.00 in0.0 mm 0.00 in0.0 mm 0.00 in0.0 mm
04:29 AM 75.8°F24.3°C 72.0°F22.2°C 88% 0.6 mph E1.0 kmh E 1.8 mph2.9 kmh 29.99 in1015.6 mb 0.00 in0.0 mm 0.00 in0.0 mm 0.00 in0.0 mm
04:24 AM 75.8°F24.3°C 72.0°F22.2°C 88% Calm Calm 1.8 mph2.9 kmh 29.99 in1015.6 mb 0.00 in0.0 mm 0.00 in0.0 mm 0.00 in0.0 mm
04:19 AM 76.0°F24.4°C 72.2°F22.3°C 88% 0.9 mph ESE1.4 kmh ESE 2.0 mph3.2 kmh 29.99 in1015.6 mb 0.00 in0.0 mm 0.00 in0.0 mm 0.00 in0.0 mm
04:14 AM 76.0°F24.4°C 71.8°F22.1°C 87% 0.9 mph E1.4 kmh E 2.0 mph3.2 kmh 29.99 in1015.6 mb 0.00 in0.0 mm 0.00 in0.0 mm 0.00 in0.0 mm
04:09 AM 76.0°F24.4°C 71.8°F22.1°C 87% 1.0 mph ESE1.6 kmh ESE 2.7 mph4.3 kmh 29.99 in1015.6 mb 0.00 in0.0 mm 0.00 in0.0 mm 0.00 in0.0 mm
04:04 AM 76.1°F24.5°C 72.0°F22.2°C 87% 1.0 mph SE1.6 kmh SE 2.7 mph4.3 kmh 29.99 in1015.6 mb 0.00 in0.0 mm 0.00 in0.0 mm 0.00 in0.0 mm
03:59 AM 76.3°F24.6°C 72.2°F22.3°C 87% 1.5 mph E2.4 kmh E 2.5 mph4.0 kmh 29.99 in1015.6 mb 0.00 in0.0 mm 0.00 in0.0 mm 0.00 in0.0 mm
03:54 AM 76.3°F24.6°C 72.2°F22.3°C 87% Calm Calm 0.9 mph1.4 kmh 29.99 in1015.6 mb 0.00 in0.0 mm 0.00 in0.0 mm 0.00 in0.0 mm
03:49 AM 76.5°F24.7°C 72.4°F22.4°C 87% Calm Calm 1.1 mph1.8 kmh 30.00 in1015.9 mb 0.00 in0.0 mm 0.00 in0.0 mm 0.00 in0.0 mm
03:44 AM 76.5°F24.7°C 72.4°F22.4°C 87% 0.4 mph E0.6 kmh E 1.1 mph1.8 kmh 30.00 in1015.9 mb 0.00 in0.0 mm 0.00 in0.0 mm 0.00 in0.0 mm
03:39 AM 76.7°F24.8°C 72.5°F22.5°C 87% 0.9 mph SE1.4 kmh SE 2.2 mph3.5 kmh 30.00 in1015.9 mb 0.00 in0.0 mm 0.00 in0.0 mm 0.00 in0.0 mm
03:34 AM 76.7°F24.8°C 72.5°F22.5°C 87% 0.9 mph ESE1.4 kmh ESE 2.2 mph3.5 kmh 30.00 in1015.9 mb 0.00 in0.0 mm 0.00 in0.0 mm 0.00 in0.0 mm
03:29 AM 76.9°F24.9°C 72.7°F22.6°C 87% 1.1 mph E1.8 kmh E 2.5 mph4.0 kmh 30.00 in1015.9 mb 0.00 in0.0 mm 0.00 in0.0 mm 0.00 in0.0 mm
03:24 AM 76.9°F24.9°C 72.7°F22.6°C 87% 0.8 mph E1.3 kmh E 2.7 mph4.3 kmh 30.00 in1015.9 mb 0.00 in0.0 mm 0.00 in0.0 mm 0.00 in0.0 mm
03:19 AM 77.0°F25.0°C 72.9°F22.7°C 87% 0.5 mph S0.8 kmh S 2.7 mph4.3 kmh 30.00 in1015.9 mb 0.00 in0.0 mm 0.00 in0.0 mm 0.00 in0.0 mm
03:14 AM 77.0°F25.0°C 72.9°F22.7°C 87% 1.9 mph E3.1 kmh E 3.4 mph5.5 kmh 30.00 in1015.9 mb 0.00 in0.0 mm 0.00 in0.0 mm 0.00 in0.0 mm
03:09 AM 77.0°F25.0°C 72.9°F22.7°C 87% 1.1 mph E1.8 kmh E 3.4 mph5.5 kmh 30.00 in1015.9 mb 0.00 in0.0 mm 0.00 in0.0 mm 0.00 in0.0 mm
03:04 AM 77.2°F25.1°C 73.1°F22.8°C 87% 1.6 mph ENE2.6 kmh ENE 2.9 mph4.7 kmh 30.00 in1015.9 mb 0.00 in0.0 mm 0.00 in0.0 mm 0.00 in0.0 mm
02:59 AM 77.2°F25.1°C 73.1°F22.8°C 87% 1.2 mph SSE1.9 kmh SSE 2.7 mph4.3 kmh 30.00 in1015.9 mb 0.00 in0.0 mm 0.00 in0.0 mm 0.00 in0.0 mm
02:54 AM 77.4°F25.2°C 73.3°F22.9°C 87% 1.1 mph ESE1.8 kmh ESE 2.9 mph4.7 kmh 30.00 in1015.9 mb 0.00 in0.0 mm 0.00 in0.0 mm 0.00 in0.0 mm
02:49 AM 77.4°F25.2°C 73.3°F22.9°C 87% 2.1 mph E3.4 kmh E 3.4 mph5.5 kmh 30.00 in1015.9 mb 0.00 in0.0 mm 0.00 in0.0 mm 0.00 in0.0 mm
02:44 AM 77.4°F25.2°C 73.3°F22.9°C 87% 0.4 mph NE0.6 kmh NE 3.4 mph5.5 kmh 30.00 in1015.9 mb 0.00 in0.0 mm 0.00 in0.0 mm 0.00 in0.0 mm
02:39 AM 77.4°F25.2°C 73.3°F22.9°C 87% 0.8 mph SSE1.3 kmh SSE 2.7 mph4.3 kmh 30.00 in1015.9 mb 0.00 in0.0 mm 0.00 in0.0 mm 0.00 in0.0 mm
02:34 AM 77.4°F25.2°C 73.3°F22.9°C 87% 1.3 mph ESE2.1 kmh ESE 2.9 mph4.7 kmh 30.00 in1015.9 mb 0.00 in0.0 mm 0.00 in0.0 mm 0.00 in0.0 mm
02:29 AM 77.6°F25.3°C 73.4°F23.0°C 87% 1.3 mph ESE2.1 kmh ESE 2.9 mph4.7 kmh 30.00 in1015.9 mb 0.00 in0.0 mm 0.00 in0.0 mm 0.00 in0.0 mm
02:24 AM 77.6°F25.3°C 73.4°F23.0°C 87% 0.8 mph E1.3 kmh E 4.3 mph6.9 kmh 30.00 in1015.9 mb 0.00 in0.0 mm 0.00 in0.0 mm 0.00 in0.0 mm
02:19 AM 77.6°F25.3°C 73.4°F23.0°C 87% 1.6 mph SE2.6 kmh SE 4.3 mph6.9 kmh 30.01 in1016.3 mb 0.00 in0.0 mm 0.00 in0.0 mm 0.00 in0.0 mm
02:14 AM 77.6°F25.3°C 73.4°F23.0°C 87% 0.9 mph SSE1.4 kmh SSE 3.4 mph5.5 kmh 30.00 in1015.9 mb 0.00 in0.0 mm 0.00 in0.0 mm 0.00 in0.0 mm
02:09 AM 77.6°F25.3°C 73.4°F23.0°C 87% 2.1 mph SE3.4 kmh SE 4.3 mph6.9 kmh 30.00 in1015.9 mb 0.00 in0.0 mm 0.00 in0.0 mm 0.00 in0.0 mm
02:04 AM 77.8°F25.4°C 73.3°F22.9°C 86% 1.5 mph ESE2.4 kmh ESE 4.3 mph6.9 kmh 30.00 in1015.9 mb 0.00 in0.0 mm 0.00 in0.0 mm 0.00 in0.0 mm
01:59 AM 77.8°F25.4°C 73.3°F22.9°C 86% 1.6 mph NNE2.6 kmh NNE 4.0 mph6.4 kmh 30.00 in1015.9 mb 0.00 in0.0 mm 0.00 in0.0 mm 0.00 in0.0 mm
01:54 AM 77.8°F25.4°C 73.3°F22.9°C 86% 3.3 mph ENE5.3 kmh ENE 3.8 mph6.1 kmh 30.00 in1015.9 mb 0.00 in0.0 mm 0.00 in0.0 mm 0.00 in0.0 mm
01:49 AM 77.8°F25.4°C 73.3°F22.9°C 86% 2.9 mph ENE4.7 kmh ENE 3.8 mph6.1 kmh 30.00 in1015.9 mb 0.00 in0.0 mm 0.00 in0.0 mm 0.00 in0.0 mm
01:44 AM 77.8°F25.4°C 73.3°F22.9°C 86% 1.7 mph ENE2.7 kmh ENE 3.8 mph6.1 kmh 30.00 in1015.9 mb 0.00 in0.0 mm 0.00 in0.0 mm 0.00 in0.0 mm
01:39 AM 77.8°F25.4°C 72.9°F22.7°C 85% 1.4 mph SSW2.3 kmh SSW 3.8 mph6.1 kmh 30.00 in1015.9 mb 0.00 in0.0 mm 0.00 in0.0 mm 0.00 in0.0 mm
01:34 AM 77.8°F25.4°C 72.9°F22.7°C 85% 0.7 mph ESE1.1 kmh ESE 2.5 mph4.0 kmh 30.00 in1015.9 mb 0.00 in0.0 mm 0.00 in0.0 mm 0.00 in0.0 mm
01:29 AM 77.8°F25.4°C 72.9°F22.7°C 85% 1.5 mph E2.4 kmh E 3.8 mph6.1 kmh 30.00 in1015.9 mb 0.00 in0.0 mm 0.00 in0.0 mm 0.00 in0.0 mm
01:24 AM 77.8°F25.4°C 72.9°F22.7°C 85% 1.0 mph E1.6 kmh E 3.8 mph6.1 kmh 30.00 in1015.9 mb 0.00 in0.0 mm 0.00 in0.0 mm 0.00 in0.0 mm
01:19 AM 77.8°F25.4°C 72.9°F22.7°C 85% 2.3 mph SE3.7 kmh SE 3.8 mph6.1 kmh 30.00 in1015.9 mb 0.00 in0.0 mm 0.00 in0.0 mm 0.00 in0.0 mm
01:14 AM 77.8°F25.4°C 72.9°F22.7°C 85% 1.4 mph ESE2.3 kmh ESE 3.4 mph5.5 kmh 30.01 in1016.3 mb 0.00 in0.0 mm 0.00 in0.0 mm 0.00 in0.0 mm
01:09 AM 77.6°F25.3°C 72.7°F22.6°C 85% 1.8 mph NE2.9 kmh NE 3.1 mph5.0 kmh 30.00 in1015.9 mb 0.00 in0.0 mm 0.00 in0.0 mm 0.00 in0.0 mm
01:04 AM 77.8°F25.4°C 72.5°F22.5°C 84% 1.4 mph N2.3 kmh N 4.0 mph6.4 kmh 30.00 in1015.9 mb 0.00 in0.0 mm 0.00 in0.0 mm 0.00 in0.0 mm
12:59 AM 77.8°F25.4°C 72.2°F22.3°C 83% 1.8 mph NE2.9 kmh NE 4.0 mph6.4 kmh 30.00 in1015.9 mb 0.00 in0.0 mm 0.00 in0.0 mm 0.00 in0.0 mm
12:53 AM 77.8°F25.4°C 72.2°F22.3°C 83% 1.5 mph E2.4 kmh E 2.5 mph4.0 kmh 30.00 in1015.9 mb 0.00 in0.0 mm 0.00 in0.0 mm 0.00 in0.0 mm
12:48 AM 77.8°F25.4°C 71.8°F22.1°C 82% 1.4 mph NE2.3 kmh NE 2.5 mph4.0 kmh 30.00 in1015.9 mb 0.00 in0.0 mm 0.00 in0.0 mm 0.00 in0.0 mm
12:44 AM 77.8°F25.4°C 71.8°F22.1°C 82% 1.3 mph E2.1 kmh E 3.4 mph5.5 kmh 30.00 in1015.9 mb 0.00 in0.0 mm 0.00 in0.0 mm 0.00 in0.0 mm
12:38 AM 77.9°F25.5°C 71.6°F22.0°C 81% 1.5 mph ENE2.4 kmh ENE 4.0 mph6.4 kmh 30.01 in1016.3 mb 0.00 in0.0 mm 0.00 in0.0 mm 0.00 in0.0 mm
12:33 AM 78.1°F25.6°C 71.8°F22.1°C 81% 2.8 mph E4.5 kmh E 4.0 mph6.4 kmh 30.00 in1015.9 mb 0.00 in0.0 mm 0.00 in0.0 mm 0.00 in0.0 mm
12:28 AM 78.1°F25.6°C 71.8°F22.1°C 81% 1.6 mph NNE2.6 kmh NNE 4.0 mph6.4 kmh 30.00 in1015.9 mb 0.00 in0.0 mm 0.00 in0.0 mm 0.00 in0.0 mm
12:23 AM 78.1°F25.6°C 71.5°F21.9°C 80% 2.3 mph SE3.7 kmh SE 4.7 mph7.6 kmh 30.00 in1015.9 mb 0.00 in0.0 mm 0.00 in0.0 mm 0.00 in0.0 mm
12:18 AM 78.3°F25.7°C 71.6°F22.0°C 80% 3.2 mph E5.1 kmh E 4.7 mph7.6 kmh 30.01 in1016.3 mb 0.00 in0.0 mm 0.00 in0.0 mm 0.00 in0.0 mm
12:13 AM 78.5°F25.8°C 71.5°F21.9°C 79% 1.5 mph ENE2.4 kmh ENE 4.5 mph7.2 kmh 30.01 in1016.3 mb 0.00 in0.0 mm 0.00 in0.0 mm 0.00 in0.0 mm
12:08 AM 78.5°F25.8°C 71.0°F21.7°C 78% 2.3 mph ESE3.7 kmh ESE 4.5 mph7.2 kmh 30.01 in1016.3 mb 0.00 in0.0 mm 0.00 in0.0 mm 0.00 in0.0 mm
12:03 AM 78.7°F25.9°C 71.2°F21.8°C 78% 3.2 mph NE5.1 kmh NE 4.9 mph7.9 kmh 30.00 in1015.9 mb 0.00 in0.0 mm 0.00 in0.0 mm 0.00 in0.0 mm